Statesville, North Carolina
Current Conditions -  °F | °C
As of 7:35 PM on Friday 21 Nov 2014 (Local Time) from KSVH Reporting Station
Clear Clear  
Wind Chill: 40°   Ceiling: Unl
Heat Index: 40°   Visibility: 10mi
Dew Point: 13°   Wind: 3mph
Humidity: 33%   Direction: 80°E
Pressure: 30.45"   Gusts: NA
Location:  35.79°N, 80.89°W
Report Text: KSVH 220035Z AUTO 08003KT 10SM CLR 04/M11 A3045 RMK AO2 T00431106
Loading
Personal Weather Stations






























Interactive Weather Map New forecast layout! Learn more

10-Day Weather Forecast

Advertisements
Track Severe Weather on mobile